Penhold, Canada
Current Conditions -  °F | °C
As of 1:00 AM on Sunday 21 Dec 2014 (Local Time) from CYQF Reporting Station
Overcast Overcast  
Wind Chill: 16°   Ceiling: 22000
Heat Index: 23°   Visibility: 15mi
Dew Point: 18°   Wind: 6mph
Humidity: 80%   Direction: 140°SE
Pressure: 29.23"   Gusts: NA
Location:  52.13°N, 113.87°W
Report Text: CYQF 210800Z 14005KT 15SM SCT160 OVC220 M05/M08 A2923 RMK AC4CI4 SLP939
Loading
Personal Weather Stations






























Interactive Weather Map New forecast layout! Learn more

10-Day Weather Forecast

Advertisements
Track Severe Weather on mobile